Time;durP1;ratioP1;P1;durP2;ratioP2;P2;SDS_P1;SDS_P2;PMS_P1;PMS_P2;Temp;Humidity;BMP_temperature;BMP_pressure;BME280_temperature;BME280_humidity;BME280_pressure;Samples;Min_cycle;Max_cycle;Signal;HPM_P1;HPM_P2
2022/01/01 00:02:17;;;;;;;77.47;47.33;;;13.10;99.90;;;;;;5098637;28;20080;-77
2022/01/01 00:04:43;;;;;;;84.90;51.47;;;13.10;99.90;;;;;;5114726;28;20036;-76
2022/01/01 00:07:12;;;;;;;145.70;111.63;;;13.10;99.90;;;;;;5114585;28;20023;-77
2022/01/01 00:09:38;;;;;;;83.03;53.17;;;13.10;99.90;;;;;;5096350;28;20027;-77
2022/01/01 00:12:05;;;;;;;62.20;40.40;;;13.10;99.90;;;;;;5113936;28;20023;-77
2022/01/01 00:14:30;;;;;;;67.97;38.97;;;13.10;99.90;;;;;;5112400;28;20024;-76
2022/01/01 00:16:56;;;;;;;57.40;34.38;;;13.10;99.90;;;;;;5112574;28;20031;-76
2022/01/01 00:19:22;;;;;;;56.05;31.88;;;13.10;99.90;;;;;;5095445;28;20363;-76
2022/01/01 00:21:47;;;;;;;67.25;34.10;;;13.10;99.90;;;;;;5112747;28;20089;-77
2022/01/01 00:24:13;;;;;;;62.70;31.30;;;13.10;99.90;;;;;;5112855;28;20027;-76
2022/01/01 00:26:40;;;;;;;99.82;61.63;;;13.10;99.90;;;;;;5112830;28;20024;-76
2022/01/01 00:29:06;;;;;;;63.38;39.85;;;13.10;99.90;;;;;;5096457;28;20459;-76
2022/01/01 00:31:32;;;;;;;67.57;37.22;;;13.10;99.90;;;;;;5113887;28;20035;-75
2022/01/01 00:33:59;;;;;;;62.88;35.95;;;13.10;99.90;;;;;;5094731;28;20454;-78
2022/01/01 00:36:25;;;;;;;66.65;36.50;;;13.10;99.90;;;;;;5111987;28;20103;-78
2022/01/01 00:38:51;;;;;;;72.43;40.85;;;13.10;99.90;;;;;;5113088;28;20484;-76
2022/01/01 00:41:16;;;;;;;68.10;39.15;;;13.00;99.90;;;;;;5111741;28;20027;-75
2022/01/01 00:43:42;;;;;;;73.32;40.35;;;13.00;99.90;;;;;;5114410;28;20028;-76
2022/01/01 00:46:08;;;;;;;76.35;39.67;;;13.00;99.90;;;;;;5096083;28;20031;-76
2022/01/01 00:48:33;;;;;;;68.70;39.95;;;13.10;99.90;;;;;;5095833;28;20059;-76
2022/01/01 00:50:59;;;;;;;66.35;40.13;;;13.00;99.90;;;;;;5112961;28;20031;-76
2022/01/01 00:53:24;;;;;;;64.03;36.83;;;13.00;99.90;;;;;;5112659;28;20049;-76
2022/01/01 00:55:50;;;;;;;66.60;37.92;;;13.00;99.90;;;;;;5092178;28;20514;-76
2022/01/01 00:58:15;;;;;;;69.25;36.03;;;13.00;99.90;;;;;;5092859;28;20053;-76
2022/01/01 01:00:41;;;;;;;57.83;32.42;;;13.00;99.90;;;;;;5075336;28;20020;-75
2022/01/01 01:03:14;;;;;;;68.15;36.53;;;13.00;99.90;;;;;;5093475;28;20039;-78
2022/01/01 01:05:42;;;;;;;64.00;34.97;;;13.00;99.90;;;;;;5093461;28;20024;-78
2022/01/01 01:08:09;;;;;;;67.38;37.35;;;13.00;99.90;;;;;;5092086;28;20021;-78
2022/01/01 01:10:36;;;;;;;63.72;35.80;;;13.00;99.90;;;;;;5093002;28;20017;-77
2022/01/01 01:13:02;;;;;;;57.78;32.70;;;13.00;99.90;;;;;;5109064;28;20035;-78
2022/01/01 01:15:30;;;;;;;60.72;35.10;;;13.00;99.90;;;;;;5109122;28;20028;-78
2022/01/01 01:17:57;;;;;;;56.80;33.88;;;13.00;99.90;;;;;;5092157;28;20119;-78
2022/01/01 01:20:23;;;;;;;67.70;36.47;;;13.00;99.90;;;;;;5108549;28;20122;-78
2022/01/01 01:22:49;;;;;;;60.15;35.30;;;13.00;99.90;;;;;;5108761;28;20069;-77
2022/01/01 01:25:15;;;;;;;58.42;34.83;;;13.00;99.90;;;;;;5095380;28;20434;-77
2022/01/01 01:27:42;;;;;;;63.78;37.13;;;13.00;99.90;;;;;;5112363;28;20034;-77
2022/01/01 01:30:10;;;;;;;57.30;34.33;;;13.00;99.90;;;;;;5095796;28;20360;-76
2022/01/01 01:32:37;;;;;;;59.15;35.83;;;13.00;99.90;;;;;;5113655;28;20054;-76
2022/01/01 01:35:04;;;;;;;64.40;38.30;;;13.00;99.90;;;;;;5113891;28;20030;-75
2022/01/01 01:37:30;;;;;;;73.22;39.78;;;13.00;99.90;;;;;;5095662;28;20593;-75
2022/01/01 01:39:56;;;;;;;72.05;41.50;;;13.00;99.90;;;;;;5113965;28;20071;-75
2022/01/01 01:42:24;;;;;;;69.03;41.92;;;13.00;99.90;;;;;;5113424;28;20038;-77
2022/01/01 01:44:53;;;;;;;65.28;39.70;;;13.00;99.90;;;;;;5112463;28;20356;-75
2022/01/01 01:47:31;;;;;;;69.60;41.10;;;13.00;99.90;;;;;;5112371;28;20390;-75
2022/01/01 01:49:58;;;;;;;74.57;40.55;;;13.00;99.90;;;;;;5117428;28;20098;-75
2022/01/01 01:52:26;;;;;;;66.40;42.83;;;13.00;99.90;;;;;;5117396;27;20414;-75
2022/01/01 01:54:52;;;;;;;62.42;40.17;;;13.00;99.90;;;;;;5117183;28;20020;-77
2022/01/01 01:57:19;;;;;;;61.58;37.22;;;12.90;99.90;;;;;;5115828;28;20038;-75
2022/01/01 01:59:46;;;;;;;66.53;39.58;;;13.00;99.90;;;;;;5117566;28;20023;-75
2022/01/01 02:02:12;;;;;;;67.00;39.15;;;12.90;99.90;;;;;;5116066;28;20023;-75
2022/01/01 02:04:38;;;;;;;63.63;35.40;;;12.90;99.90;;;;;;5116231;28;20359;-78
2022/01/01 02:07:07;;;;;;;65.13;36.00;;;13.00;99.90;;;;;;5099102;28;20081;-76
2022/01/01 02:09:34;;;;;;;59.67;37.08;;;12.90;99.90;;;;;;5099319;28;20024;-75
2022/01/01 02:12:03;;;;;;;62.15;34.58;;;12.90;99.90;;;;;;5117008;28;20031;-75
2022/01/01 02:14:54;;;;;;;67.07;34.45;;;12.90;99.90;;;;;;5117413;28;20061;-75
2022/01/01 02:17:19;;;;;;;67.30;33.20;;;12.90;99.90;;;;;;5102918;28;20360;-75
2022/01/01 02:20:04;;;;;;;56.75;33.35;;;12.90;99.90;;;;;;5098861;28;20027;-75
2022/01/01 02:22:51;;;;;;;65.35;34.28;;;12.90;99.90;;;;;;5116933;28;20016;-75
2022/01/01 02:25:19;;;;;;;62.13;34.95;;;12.90;99.90;;;;;;5115505;28;20055;-76
2022/01/01 02:27:45;;;;;;;58.92;33.95;;;12.90;99.90;;;;;;5115392;28;20051;-75
2022/01/01 02:30:13;;;;;;;57.30;35.58;;;13.00;99.90;;;;;;5115406;28;20026;-75
2022/01/01 02:32:39;;;;;;;61.42;36.97;;;12.90;99.90;;;;;;5115598;28;20502;-76
2022/01/01 02:35:08;;;;;;;65.82;39.25;;;12.90;99.90;;;;;;5116820;28;20375;-77
2022/01/01 02:37:38;;;;;;;62.00;37.25;;;12.90;99.90;;;;;;5116566;28;20062;-77
2022/01/01 02:40:04;;;;;;;73.50;41.65;;;12.90;99.90;;;;;;5115411;28;20027;-77
2022/01/01 02:42:30;;;;;;;67.82;41.60;;;13.00;99.90;;;;;;5115121;28;20027;-77
2022/01/01 02:44:58;;;;;;;61.63;38.10;;;12.90;99.90;;;;;;5115417;28;20028;-77
2022/01/01 02:47:23;;;;;;;62.42;37.60;;;12.90;99.90;;;;;;5116367;28;20028;-77
2022/01/01 02:49:49;;;;;;;78.20;40.75;;;12.90;99.90;;;;;;5115273;28;20031;-77
2022/01/01 02:52:14;;;;;;;66.88;38.15;;;12.90;99.90;;;;;;5115155;28;20503;-77
2022/01/01 02:54:40;;;;;;;70.90;37.58;;;12.90;99.90;;;;;;5098105;28;20027;-76
2022/01/01 02:57:06;;;;;;;71.03;37.08;;;12.90;99.90;;;;;;5115019;28;20475;-77
2022/01/01 02:59:31;;;;;;;60.20;34.22;;;12.90;99.90;;;;;;5116144;28;20031;-77
2022/01/01 03:01:57;;;;;;;57.92;33.25;;;12.90;99.90;;;;;;5115178;28;20031;-75
2022/01/01 03:04:22;;;;;;;59.08;33.13;;;12.90;99.90;;;;;;5114726;28;20067;-75
2022/01/01 03:06:53;;;;;;;50.03;30.58;;;13.00;99.90;;;;;;5116144;28;20036;-75
2022/01/01 03:09:20;;;;;;;58.03;32.50;;;12.90;99.90;;;;;;5098655;28;20479;-75
2022/01/01 03:11:46;;;;;;;65.35;33.28;;;13.00;99.90;;;;;;5114859;28;20027;-75
2022/01/01 03:14:17;;;;;;;57.25;33.55;;;13.00;99.90;;;;;;5098073;28;20028;-75
2022/01/01 03:16:43;;;;;;;59.50;34.08;;;13.00;99.90;;;;;;5114885;28;20480;-75
2022/01/01 03:19:09;;;;;;;50.72;32.35;;;13.00;99.90;;;;;;5097598;28;20027;-75
2022/01/01 03:21:35;;;;;;;56.38;33.80;;;13.00;99.90;;;;;;5114578;28;20031;-77
2022/01/01 03:24:00;;;;;;;56.00;32.25;;;12.90;99.90;;;;;;5115948;28;20039;-77
2022/01/01 03:26:26;;;;;;;57.40;32.25;;;13.00;99.90;;;;;;5081137;28;20024;-77
2022/01/01 03:28:51;;;;;;;57.58;34.13;;;13.00;99.90;;;;;;5114110;28;20054;-77
2022/01/01 03:31:17;;;;;;;60.55;34.13;;;13.00;99.90;;;;;;5114160;28;20080;-77
2022/01/01 03:33:43;;;;;;;55.85;33.60;;;13.00;99.90;;;;;;5115335;28;20364;-77
2022/01/01 03:36:08;;;;;;;54.85;32.85;;;13.00;99.90;;;;;;5097181;28;20024;-77
2022/01/01 03:38:34;;;;;;;62.22;33.92;;;13.00;99.90;;;;;;5096918;28;20046;-77
2022/01/01 03:41:00;;;;;;;52.25;31.08;;;13.00;99.90;;;;;;5115117;28;20027;-77
2022/01/01 03:43:25;;;;;;;53.17;32.72;;;13.00;99.90;;;;;;5114144;28;20031;-77
2022/01/01 03:45:51;;;;;;;59.72;34.30;;;13.00;99.90;;;;;;5097025;28;20027;-77
2022/01/01 03:48:17;;;;;;;68.93;34.35;;;13.00;99.90;;;;;;5115262;28;20030;-77
2022/01/01 03:50:43;;;;;;;52.83;32.95;;;13.10;99.90;;;;;;5115317;28;20076;-77
2022/01/01 03:53:10;;;;;;;52.47;32.63;;;13.10;99.90;;;;;;5113767;28;20115;-77
2022/01/01 03:55:35;;;;;;;53.83;30.60;;;13.10;99.90;;;;;;5113606;28;20028;-77
2022/01/01 03:58:01;;;;;;;54.13;32.30;;;13.10;99.90;;;;;;5113817;28;20088;-77
2022/01/01 04:00:27;;;;;;;51.58;28.73;;;13.10;99.90;;;;;;5115027;28;20024;-77
2022/01/01 04:02:52;;;;;;;50.15;27.83;;;13.10;99.90;;;;;;5114932;28;20122;-77
2022/01/01 04:05:18;;;;;;;50.22;28.95;;;13.10;99.90;;;;;;5114894;28;20062;-77
2022/01/01 04:07:44;;;;;;;55.33;27.20;;;13.10;99.90;;;;;;5114896;28;20498;-77
2022/01/01 04:10:10;;;;;;;48.50;26.25;;;13.10;99.90;;;;;;5113527;28;20027;-77
2022/01/01 04:12:36;;;;;;;48.22;24.52;;;13.10;99.90;;;;;;5114226;28;20055;-77
2022/01/01 04:15:03;;;;;;;44.28;25.55;;;13.10;99.90;;;;;;5113647;28;20024;-77
2022/01/01 04:17:28;;;;;;;51.75;24.85;;;13.10;99.90;;;;;;5114746;28;20321;-77
2022/01/01 04:19:54;;;;;;;45.40;24.60;;;13.20;99.90;;;;;;5096357;28;20068;-77
2022/01/01 04:22:20;;;;;;;38.92;22.85;;;13.20;99.90;;;;;;5113347;28;20055;-77
2022/01/01 04:24:45;;;;;;;38.75;22.35;;;13.20;99.90;;;;;;5113332;28;20030;-77
2022/01/01 04:27:11;;;;;;;41.22;21.92;;;13.20;99.90;;;;;;5113448;28;20035;-77
2022/01/01 04:29:38;;;;;;;43.05;21.92;;;13.20;99.90;;;;;;5114450;28;20384;-77
2022/01/01 04:32:04;;;;;;;38.08;20.95;;;13.20;99.90;;;;;;5114150;28;20106;-77
2022/01/01 04:34:30;;;;;;;38.75;18.17;;;13.20;99.90;;;;;;5114318;28;20440;-77
2022/01/01 04:37:05;;;;;;;25.00;16.35;;;13.20;99.90;;;;;;5096084;28;20119;-77
2022/01/01 04:39:31;;;;;;;33.78;16.88;;;13.20;99.90;;;;;;5114176;28;20031;-77
2022/01/01 04:41:57;;;;;;;31.95;14.77;;;13.20;99.90;;;;;;5113230;28;20038;-77
2022/01/01 04:44:22;;;;;;;31.55;15.55;;;13.20;99.90;;;;;;5114929;28;20031;-76
2022/01/01 04:46:48;;;;;;;29.08;15.00;;;13.20;99.90;;;;;;5113538;28;20463;-77
2022/01/01 04:49:14;;;;;;;30.45;14.30;;;13.20;99.90;;;;;;5113301;28;20097;-77
2022/01/01 04:51:39;;;;;;;33.30;12.85;;;13.20;99.90;;;;;;5114888;28;20036;-77
2022/01/01 04:54:12;;;;;;;26.13;12.38;;;13.20;99.90;;;;;;5114581;28;20054;-78
2022/01/01 04:56:43;;;;;;;30.02;13.32;;;13.30;99.90;;;;;;5113211;28;20114;-77
2022/01/01 04:59:09;;;;;;;25.45;12.35;;;13.30;99.90;;;;;;5113367;28;20041;-77
2022/01/01 05:01:34;;;;;;;22.63;11.02;;;13.30;99.90;;;;;;5113545;28;20024;-76
2022/01/01 05:04:00;;;;;;;27.05;11.25;;;13.30;99.90;;;;;;5112961;28;20034;-77
2022/01/01 05:06:26;;;;;;;24.23;11.60;;;13.30;99.90;;;;;;5113040;28;20128;-77
2022/01/01 05:08:52;;;;;;;25.83;11.32;;;13.30;99.90;;;;;;5114003;28;20115;-77
2022/01/01 05:11:17;;;;;;;22.33;11.07;;;13.30;99.90;;;;;;5095584;28;20051;-77
2022/01/01 05:13:43;;;;;;;21.92;10.50;;;13.30;99.90;;;;;;5113961;28;20050;-77
2022/01/01 05:16:14;;;;;;;26.50;11.40;;;13.30;99.90;;;;;;5112646;28;20027;-77
2022/01/01 05:18:40;;;;;;;32.30;10.75;;;13.30;99.90;;;;;;5112857;28;20030;-77
2022/01/01 05:21:05;;;;;;;22.48;10.38;;;13.30;99.90;;;;;;5113783;28;20114;-77
2022/01/01 05:23:31;;;;;;;27.40;10.90;;;13.30;99.90;;;;;;5114400;28;20067;-77
2022/01/01 05:25:57;;;;;;;22.00;9.88;;;13.30;99.90;;;;;;5116845;28;20424;-77
2022/01/01 05:28:22;;;;;;;25.60;9.95;;;13.30;99.90;;;;;;5117994;28;20045;-77
2022/01/01 05:30:48;;;;;;;19.98;10.15;;;13.30;99.90;;;;;;5117877;28;20126;-77
2022/01/01 05:33:15;;;;;;;20.88;10.40;;;13.30;99.90;;;;;;5117847;28;20067;-77
2022/01/01 05:35:41;;;;;;;22.33;9.68;;;13.30;99.90;;;;;;5118084;28;20043;-77
2022/01/01 05:38:06;;;;;;;20.27;9.90;;;13.30;99.90;;;;;;5117731;28;20487;-77
2022/01/01 05:40:32;;;;;;;26.30;9.88;;;13.30;99.90;;;;;;5117850;28;20036;-77
2022/01/01 05:42:58;;;;;;;24.73;10.07;;;13.30;99.90;;;;;;5104607;28;20032;-77
2022/01/01 05:45:24;;;;;;;25.13;9.60;;;13.30;99.90;;;;;;5079150;28;20037;-77
2022/01/01 05:47:49;;;;;;;18.20;9.38;;;13.30;99.90;;;;;;5095969;28;20039;-77
2022/01/01 05:50:17;;;;;;;17.92;8.63;;;13.30;99.90;;;;;;5097447;28;20059;-77
2022/01/01 05:52:43;;;;;;;18.15;8.68;;;13.30;99.90;;;;;;5097126;28;20032;-77
2022/01/01 05:55:09;;;;;;;18.80;9.00;;;13.30;99.90;;;;;;5097020;28;20035;-77
2022/01/01 05:57:35;;;;;;;21.20;9.95;;;13.30;99.90;;;;;;5096996;28;20472;-77
2022/01/01 06:00:00;;;;;;;19.27;9.02;;;13.30;99.90;;;;;;5095799;28;20028;-77
2022/01/01 06:02:26;;;;;;;24.90;10.10;;;13.30;99.90;;;;;;5096987;28;20111;-77
2022/01/01 06:04:52;;;;;;;18.63;8.65;;;13.30;99.90;;;;;;5095679;28;20032;-77
2022/01/01 06:07:17;;;;;;;22.77;9.25;;;13.30;99.90;;;;;;5078791;28;20078;-77
2022/01/01 06:09:45;;;;;;;19.60;9.45;;;13.30;99.90;;;;;;5095547;28;20043;-77
2022/01/01 06:12:11;;;;;;;20.42;8.77;;;13.30;99.90;;;;;;5095678;28;20078;-77
2022/01/01 06:14:36;;;;;;;19.00;9.27;;;13.30;99.90;;;;;;5096796;28;20032;-77
2022/01/01 06:17:02;;;;;;;19.17;9.35;;;13.30;99.90;;;;;;5061856;28;20055;-77
2022/01/01 06:19:28;;;;;;;19.83;9.63;;;13.30;99.90;;;;;;5095375;28;20024;-77
2022/01/01 06:21:54;;;;;;;24.85;11.27;;;13.30;99.90;;;;;;5078668;28;20031;-77
2022/01/01 06:24:19;;;;;;;26.52;13.57;;;13.30;99.90;;;;;;5095342;28;20043;-77
2022/01/01 06:26:45;;;;;;;25.67;14.20;;;13.30;99.90;;;;;;5095291;28;20064;-77
2022/01/01 06:29:11;;;;;;;25.33;15.48;;;13.30;99.90;;;;;;5106215;28;20031;-77
2022/01/01 06:31:36;;;;;;;33.53;18.13;;;13.30;99.90;;;;;;5094814;28;20058;-77
2022/01/01 06:34:02;;;;;;;29.58;16.63;;;13.30;99.90;;;;;;5077381;28;20036;-77
2022/01/01 06:36:28;;;;;;;30.88;18.00;;;13.30;99.90;;;;;;5105061;28;20027;-77
2022/01/01 06:38:54;;;;;;;36.95;18.95;;;13.30;99.90;;;;;;5116331;28;20528;-77
2022/01/01 06:41:20;;;;;;;35.65;18.65;;;13.20;99.90;;;;;;5098284;28;20388;-77
2022/01/01 06:43:46;;;;;;;34.83;17.95;;;13.30;99.90;;;;;;5116526;28;20128;-77
2022/01/01 06:46:11;;;;;;;37.55;20.08;;;13.30;99.90;;;;;;5116380;28;20548;-77
2022/01/01 06:48:37;;;;;;;31.38;19.83;;;13.30;99.90;;;;;;5114965;28;20123;-77
2022/01/01 06:51:03;;;;;;;40.15;20.77;;;13.20;99.90;;;;;;5115950;28;20111;-75
2022/01/01 06:53:29;;;;;;;33.85;19.42;;;13.20;99.90;;;;;;5102987;28;20066;-75
2022/01/01 06:55:54;;;;;;;41.92;19.20;;;13.10;99.90;;;;;;5116849;27;20051;-75
2022/01/01 06:58:20;;;;;;;35.88;19.02;;;13.10;99.90;;;;;;5114893;27;20075;-75
2022/01/01 07:00:46;;;;;;;33.55;18.50;;;13.00;99.90;;;;;;5108477;28;20023;-75
2022/01/01 07:03:11;;;;;;;31.50;16.10;;;13.00;99.90;;;;;;5108519;28;20476;-75
2022/01/01 07:05:37;;;;;;;34.10;17.83;;;13.00;99.90;;;;;;5115983;28;20036;-75
2022/01/01 07:08:03;;;;;;;29.00;16.30;;;12.90;99.90;;;;;;5113488;28;20636;-74
2022/01/01 07:10:28;;;;;;;32.10;14.98;;;12.90;99.90;;;;;;5114083;28;20063;-75
2022/01/01 07:12:54;;;;;;;24.60;12.30;;;12.90;99.90;;;;;;5115479;28;20023;-76
2022/01/01 07:15:20;;;;;;;26.80;12.63;;;12.80;99.90;;;;;;5116029;28;20081;-74
2022/01/01 07:17:45;;;;;;;23.98;11.70;;;12.80;99.90;;;;;;5114934;28;20356;-75
2022/01/01 07:20:11;;;;;;;21.35;9.98;;;12.80;99.90;;;;;;5114268;28;20036;-75
2022/01/01 07:22:41;;;;;;;18.00;8.70;;;12.80;99.90;;;;;;5114626;28;20071;-75
2022/01/01 07:25:07;;;;;;;19.10;8.30;;;12.80;99.90;;;;;;5095152;28;20036;-76
2022/01/01 07:27:33;;;;;;;14.27;7.00;;;12.80;99.90;;;;;;5093924;28;20391;-76
2022/01/01 07:29:59;;;;;;;19.75;7.97;;;12.80;99.90;;;;;;5094145;28;20040;-77
2022/01/01 07:32:24;;;;;;;19.02;7.30;;;12.80;99.90;;;;;;5097465;28;20031;-76
2022/01/01 07:34:50;;;;;;;18.58;7.18;;;12.80;99.90;;;;;;5114463;28;20058;-76
2022/01/01 07:37:16;;;;;;;15.35;6.82;;;12.80;99.90;;;;;;5097355;28;20074;-76
2022/01/01 07:39:41;;;;;;;15.23;6.45;;;12.90;99.90;;;;;;5114289;28;20047;-77
2022/01/01 07:42:07;;;;;;;24.80;7.57;;;12.80;99.90;;;;;;5114082;28;20035;-77
2022/01/01 07:44:33;;;;;;;15.98;6.60;;;12.80;99.90;;;;;;5115521;28;20024;-78
2022/01/01 07:46:59;;;;;;;13.20;5.57;;;12.80;99.90;;;;;;5114366;28;20110;-77
2022/01/01 07:49:25;;;;;;;13.65;5.63;;;12.80;99.90;;;;;;5115351;28;20045;-77
2022/01/01 07:51:51;;;;;;;17.42;5.78;;;12.80;99.90;;;;;;5114024;28;20044;-77
2022/01/01 07:54:16;;;;;;;14.40;5.82;;;12.80;99.90;;;;;;5115252;28;20028;-77
2022/01/01 07:56:42;;;;;;;19.25;5.88;;;12.80;99.90;;;;;;5115191;28;20382;-77
2022/01/01 07:59:07;;;;;;;15.00;6.05;;;12.80;99.90;;;;;;5114045;28;20035;-77
2022/01/01 08:01:33;;;;;;;15.93;6.03;;;12.70;99.90;;;;;;5113454;28;20063;-76
2022/01/01 08:04:02;;;;;;;14.82;5.47;;;12.70;99.90;;;;;;5114887;28;20039;-77
2022/01/01 08:06:32;;;;;;;19.83;5.80;;;12.80;99.90;;;;;;5113829;28;20077;-78
2022/01/01 08:08:58;;;;;;;13.50;4.90;;;12.70;99.90;;;;;;5114966;28;20076;-78
2022/01/01 08:11:24;;;;;;;15.45;5.40;;;12.70;99.90;;;;;;5113083;28;20035;-76
2022/01/01 08:13:50;;;;;;;16.98;5.30;;;12.70;99.90;;;;;;5096239;28;20499;-77
2022/01/01 08:16:16;;;;;;;15.43;6.57;;;12.70;99.90;;;;;;5113541;28;20076;-77
2022/01/01 08:18:42;;;;;;;16.88;6.07;;;12.80;99.90;;;;;;5114647;28;20054;-77
2022/01/01 08:21:07;;;;;;;15.50;5.68;;;12.70;99.90;;;;;;5107994;28;20036;-77
2022/01/01 08:23:33;;;;;;;13.40;6.00;;;12.70;99.90;;;;;;5114266;28;20560;-77
2022/01/01 08:26:00;;;;;;;14.52;5.68;;;12.70;99.90;;;;;;5096236;28;20032;-77
2022/01/01 08:28:26;;;;;;;16.70;4.82;;;12.70;99.90;;;;;;5094665;28;20036;-77
2022/01/01 08:30:52;;;;;;;13.35;5.47;;;12.70;99.90;;;;;;5112357;28;20032;-77
2022/01/01 08:33:17;;;;;;;14.73;4.95;;;12.70;99.90;;;;;;5114250;28;20031;-75
2022/01/01 08:35:44;;;;;;;15.02;4.78;;;12.80;99.90;;;;;;5104531;28;20074;-75
2022/01/01 08:38:10;;;;;;;14.23;5.50;;;12.80;99.90;;;;;;5112938;28;20063;-75
2022/01/01 08:40:36;;;;;;;17.58;5.88;;;12.80;99.90;;;;;;5114590;28;20451;-75
2022/01/01 08:43:02;;;;;;;11.77;4.97;;;12.90;99.80;;;;;;5114534;28;20020;-75
2022/01/01 08:45:28;;;;;;;19.45;6.15;;;12.80;99.90;;;;;;5114579;28;20414;-75
2022/01/01 08:47:54;;;;;;;14.10;4.57;;;12.90;99.80;;;;;;5075290;28;20492;-75
2022/01/01 08:50:19;;;;;;;15.50;5.03;;;13.00;99.90;;;;;;5092563;28;20058;-75
2022/01/01 08:52:45;;;;;;;13.10;4.00;;;13.00;99.90;;;;;;5092756;28;20032;-75
2022/01/01 08:55:12;;;;;;;13.65;4.50;;;13.00;99.80;;;;;;5105763;28;20460;-75
2022/01/01 08:57:37;;;;;;;13.70;4.47;;;13.00;99.60;;;;;;5118287;27;20468;-76
2022/01/01 09:00:08;;;;;;;12.30;3.45;;;13.00;99.50;;;;;;5113534;28;20092;-76
2022/01/01 09:02:34;;;;;;;12.73;3.70;;;13.10;99.50;;;;;;5112913;28;20028;-78
2022/01/01 09:05:00;;;;;;;14.15;3.67;;;13.10;99.60;;;;;;5114024;28;20046;-78
2022/01/01 09:07:28;;;;;;;11.65;3.78;;;13.10;99.50;;;;;;5113962;28;20476;-78
2022/01/01 09:10:01;;;;;;;15.70;5.28;;;13.20;99.50;;;;;;5112615;28;20399;-78
2022/01/01 09:12:28;;;;;;;11.00;4.10;;;13.20;99.50;;;;;;5114164;28;20032;-78
2022/01/01 09:14:54;;;;;;;12.60;3.75;;;13.30;99.50;;;;;;5113856;28;20031;-78
2022/01/01 09:17:20;;;;;;;11.63;3.90;;;13.30;99.30;;;;;;5113205;28;20367;-77
2022/01/01 09:19:46;;;;;;;14.55;4.13;;;13.30;99.20;;;;;;5086745;28;20032;-77
2022/01/01 09:22:12;;;;;;;15.35;4.40;;;13.30;99.10;;;;;;5093696;28;20040;-78
2022/01/01 09:24:38;;;;;;;15.75;4.38;;;13.30;99.40;;;;;;5092091;28;20369;-78
2022/01/01 09:27:04;;;;;;;8.02;3.05;;;13.40;99.00;;;;;;5092406;28;20537;-78
2022/01/01 09:29:29;;;;;;;15.43;3.90;;;13.40;99.00;;;;;;5092048;28;20067;-78
2022/01/01 09:31:55;;;;;;;18.98;4.03;;;13.40;99.00;;;;;;5093244;28;20468;-78
2022/01/01 09:34:21;;;;;;;10.70;3.53;;;13.50;98.80;;;;;;5092062;28;20046;-78
2022/01/01 09:36:47;;;;;;;11.20;3.55;;;13.50;98.70;;;;;;5094278;28;20106;-78
2022/01/01 09:39:13;;;;;;;13.75;3.97;;;13.50;98.90;;;;;;5091907;28;20135;-78
2022/01/01 09:41:42;;;;;;;11.70;4.15;;;13.50;98.50;;;;;;5092080;28;20062;-78
2022/01/01 09:44:14;;;;;;;15.35;4.30;;;13.50;98.50;;;;;;5091781;28;20036;-76
2022/01/01 09:46:42;;;;;;;10.98;3.15;;;13.50;98.40;;;;;;5108517;28;20464;-76
2022/01/01 09:49:08;;;;;;;10.82;3.90;;;13.60;98.30;;;;;;5112085;28;20585;-77
2022/01/01 09:51:37;;;;;;;15.10;3.92;;;13.60;98.40;;;;;;5112172;28;20040;-77
2022/01/01 09:54:02;;;;;;;12.18;4.07;;;13.60;98.10;;;;;;5073308;28;20077;-77
2022/01/01 09:56:28;;;;;;;13.18;3.28;;;13.60;98.10;;;;;;5093168;28;20111;-77
2022/01/01 09:58:54;;;;;;;9.35;3.22;;;13.60;98.20;;;;;;5091926;28;20036;-78
2022/01/01 10:01:19;;;;;;;17.55;4.50;;;13.70;98.10;;;;;;5091734;28;20035;-78
2022/01/01 10:03:49;;;;;;;18.35;4.05;;;13.70;98.00;;;;;;5093306;28;20036;-80
2022/01/01 10:06:17;;;;;;;11.75;3.72;;;13.70;98.00;;;;;;5092852;28;20028;-78
2022/01/01 10:08:56;;;;;;;10.77;3.63;;;13.70;97.80;;;;;;5092344;28;20042;-78
2022/01/01 10:11:23;;;;;;;10.45;3.38;;;13.70;97.80;;;;;;5096872;28;20468;-77
2022/01/01 10:13:49;;;;;;;11.50;4.32;;;13.80;97.90;;;;;;5095238;28;20027;-78
2022/01/01 10:16:15;;;;;;;10.35;4.20;;;13.80;97.60;;;;;;5078281;28;20024;-78
2022/01/01 10:18:44;;;;;;;11.35;3.75;;;13.80;97.60;;;;;;5096510;28;20051;-78
2022/01/01 10:21:16;;;;;;;13.27;4.38;;;13.90;97.80;;;;;;5099199;28;20016;-79
2022/01/01 10:23:44;;;;;;;10.32;3.22;;;14.00;97.90;;;;;;5116893;28;20031;-79
2022/01/01 10:29:10;;;;;;;8.52;3.90;;;14.30;97.90;;;;;;5117108;28;20086;-77
2022/01/01 10:31:37;;;;;;;10.45;3.67;;;14.50;98.00;;;;;;5115402;28;20030;-79
2022/01/01 10:34:14;;;;;;;10.00;3.58;;;14.60;97.60;;;;;;5115696;28;20024;-77
2022/01/01 10:36:44;;;;;;;15.73;7.03;;;14.70;97.20;;;;;;5115412;28;20054;-78
2022/01/01 10:39:15;;;;;;;14.82;6.18;;;14.80;97.00;;;;;;5115197;28;20122;-78
2022/01/01 10:41:47;;;;;;;15.65;6.18;;;14.90;96.50;;;;;;5115342;28;20055;-78
2022/01/01 10:44:13;;;;;;;16.48;6.60;;;14.90;96.30;;;;;;5116651;28;20106;-77
2022/01/01 10:46:39;;;;;;;13.30;4.97;;;14.90;96.30;;;;;;5098196;28;20050;-78
2022/01/01 10:49:36;;;;;;;12.70;4.55;;;14.90;96.00;;;;;;5115194;28;20016;-79
2022/01/01 10:52:29;;;;;;;10.63;3.85;;;15.00;95.60;;;;;;5115170;28;20027;-80
2022/01/01 10:55:07;;;;;;;8.15;3.53;;;15.00;95.50;;;;;;5114912;28;20022;-78
2022/01/01 10:57:36;;;;;;;10.25;3.92;;;14.90;95.20;;;;;;5116489;28;20019;-78
2022/01/01 11:00:20;;;;;;;8.20;3.67;;;15.00;95.40;;;;;;5115099;28;20027;-76
2022/01/01 11:02:50;;;;;;;9.95;3.53;;;15.00;95.20;;;;;;5115124;28;20031;-77
2022/01/01 11:05:16;;;;;;;8.52;2.95;;;15.00;95.40;;;;;;5114699;28;20088;-76
2022/01/01 11:07:50;;;;;;;13.35;4.38;;;15.00;95.00;;;;;;5115027;28;20032;-77
2022/01/01 11:10:18;;;;;;;9.23;4.07;;;15.00;95.00;;;;;;5116360;28;20031;-78
2022/01/01 11:12:44;;;;;;;7.63;3.63;;;15.00;95.20;;;;;;5116560;28;20027;-77
2022/01/01 11:15:10;;;;;;;8.70;3.95;;;15.10;95.40;;;;;;5116281;28;20024;-78
2022/01/01 11:17:38;;;;;;;13.18;4.22;;;15.10;95.20;;;;;;5115247;28;20132;-78
2022/01/01 11:20:05;;;;;;;7.75;3.38;;;15.10;95.20;;;;;;5116001;28;20020;-77
2022/01/01 11:22:32;;;;;;;9.73;3.97;;;15.20;95.20;;;;;;5115230;28;20024;-78
2022/01/01 11:24:59;;;;;;;12.13;5.53;;;15.10;94.70;;;;;;5116031;28;20096;-79
2022/01/01 11:27:26;;;;;;;10.63;4.80;;;15.10;94.80;;;;;;5116147;28;20031;-78
2022/01/01 11:29:53;;;;;;;11.10;4.72;;;15.10;94.60;;;;;;5114850;28;20034;-79
2022/01/01 11:32:29;;;;;;;12.75;4.25;;;15.10;94.60;;;;;;5115739;28;20356;-77
2022/01/01 11:34:56;;;;;;;13.80;5.25;;;15.00;94.60;;;;;;5114288;28;20027;-78
2022/01/01 11:37:23;;;;;;;10.23;4.30;;;15.00;94.60;;;;;;5114372;28;20031;-78
2022/01/01 11:39:55;;;;;;;12.25;4.85;;;15.00;94.60;;;;;;5115668;28;20040;-80
2022/01/01 11:42:22;;;;;;;8.57;4.07;;;15.10;94.80;;;;;;5115768;28;20028;-79
2022/01/01 11:44:53;;;;;;;8.23;3.78;;;15.10;94.70;;;;;;5116316;28;20032;-80
2022/01/01 11:47:24;;;;;;;8.82;4.00;;;15.10;94.70;;;;;;5115624;28;20361;-77
2022/01/01 11:49:52;;;;;;;11.23;3.88;;;15.20;94.70;;;;;;5113920;28;20084;-80
2022/01/01 11:52:40;;;;;;;10.55;4.15;;;15.20;94.50;;;;;;5115170;28;20058;-80
2022/01/01 11:55:17;;;;;;;8.50;3.40;;;15.20;94.50;;;;;;5115155;28;20028;-77
2022/01/01 11:57:58;;;;;;;9.68;4.60;;;15.20;94.60;;;;;;5113631;28;20080;-75
2022/01/01 12:00:24;;;;;;;11.13;4.78;;;15.20;94.70;;;;;;5106790;27;20115;-75
2022/01/01 12:02:51;;;;;;;8.43;4.07;;;15.30;94.70;;;;;;5076405;28;20043;-76
2022/01/01 12:05:19;;;;;;;8.90;3.95;;;15.40;94.80;;;;;;5076631;28;20464;-75
2022/01/01 12:07:57;;;;;;;12.68;4.15;;;15.50;94.50;;;;;;5104719;28;20039;-75
2022/01/01 12:10:28;;;;;;;9.93;3.92;;;15.60;94.70;;;;;;5110946;28;20031;-75
2022/01/01 12:13:06;;;;;;;7.60;3.78;;;15.70;94.60;;;;;;5094858;28;20032;-75
2022/01/01 12:15:41;;;;;;;8.18;3.45;;;15.70;94.20;;;;;;5104369;28;20026;-77
2022/01/01 12:18:20;;;;;;;10.40;3.58;;;15.70;94.20;;;;;;5114391;28;20031;-81
2022/01/01 12:21:01;;;;;;;9.10;3.42;;;15.70;93.70;;;;;;5114643;28;20023;-78
2022/01/01 12:23:36;;;;;;;11.07;3.17;;;15.70;93.50;;;;;;5113153;28;20023;-78
2022/01/01 12:26:08;;;;;;;8.65;3.60;;;15.80;93.80;;;;;;5100633;28;20027;-78
2022/01/01 12:28:36;;;;;;;6.32;2.78;;;15.90;94.00;;;;;;5110083;28;20499;-78
2022/01/01 12:31:19;;;;;;;10.98;3.15;;;16.10;93.90;;;;;;5093084;28;20369;-79
2022/01/01 12:33:52;;;;;;;8.77;2.50;;;16.30;93.60;;;;;;5092831;28;20491;-79
2022/01/01 12:36:29;;;;;;;7.63;2.65;;;16.40;93.60;;;;;;5093041;28;20058;-80
2022/01/01 12:39:00;;;;;;;9.98;3.30;;;16.50;93.30;;;;;;5093778;28;20111;-80